sensor_id;sensor_type;location;lat;lon;timestamp;pressure;altitude;pressure_sealevel;temperature;humidity
36192;BME280;22233;42.708;23.360;2022-11-22T00:01:08;94885.47;;;6.00;71.52
36192;BME280;22233;42.708;23.360;2022-11-22T00:03:33;94900.53;;;6.34;70.57
36192;BME280;22233;42.708;23.360;2022-11-22T00:05:59;94890.41;;;6.26;70.30
36192;BME280;22233;42.708;23.360;2022-11-22T00:08:24;94901.63;;;6.47;70.05
36192;BME280;22233;42.708;23.360;2022-11-22T00:10:50;94897.44;;;6.40;69.73
36192;BME280;22233;42.708;23.360;2022-11-22T00:13:19;94878.44;;;6.46;69.42
36192;BME280;22233;42.708;23.360;2022-11-22T00:15:59;94886.84;;;6.58;69.76
36192;BME280;22233;42.708;23.360;2022-11-22T00:18:24;94896.25;;;6.74;68.82
36192;BME280;22233;42.708;23.360;2022-11-22T00:20:50;94907.97;;;6.23;70.43
36192;BME280;22233;42.708;23.360;2022-11-22T00:23:15;94900.34;;;6.44;70.23
36192;BME280;22233;42.708;23.360;2022-11-22T00:25:41;94907.81;;;6.47;70.42
36192;BME280;22233;42.708;23.360;2022-11-22T00:28:06;94900.78;;;6.18;71.57
36192;BME280;22233;42.708;23.360;2022-11-22T00:30:31;94913.41;;;6.51;70.26
36192;BME280;22233;42.708;23.360;2022-11-22T00:32:57;94890.56;;;6.02;71.97
36192;BME280;22233;42.708;23.360;2022-11-22T00:35:22;94909.44;;;6.02;71.56
36192;BME280;22233;42.708;23.360;2022-11-22T00:37:48;94897.13;;;5.95;72.57
36192;BME280;22233;42.708;23.360;2022-11-22T00:40:13;94896.09;;;5.91;72.52
36192;BME280;22233;42.708;23.360;2022-11-22T00:42:39;94895.25;;;5.96;71.98
36192;BME280;22233;42.708;23.360;2022-11-22T00:45:04;94892.75;;;5.99;72.39
36192;BME280;22233;42.708;23.360;2022-11-22T00:47:30;94881.44;;;5.84;72.87
36192;BME280;22233;42.708;23.360;2022-11-22T00:49:55;94889.47;;;5.70;74.05
36192;BME280;22233;42.708;23.360;2022-11-22T00:52:21;94891.69;;;5.82;73.59
36192;BME280;22233;42.708;23.360;2022-11-22T00:54:46;94891.16;;;5.47;74.45
36192;BME280;22233;42.708;23.360;2022-11-22T00:57:11;94889.72;;;5.35;75.30
36192;BME280;22233;42.708;23.360;2022-11-22T00:59:37;94897.31;;;5.33;74.92
36192;BME280;22233;42.708;23.360;2022-11-22T01:02:02;94895.19;;;5.30;75.13
36192;BME280;22233;42.708;23.360;2022-11-22T01:04:28;94892.09;;;5.56;74.66
36192;BME280;22233;42.708;23.360;2022-11-22T01:06:53;94889.63;;;5.59;73.48
36192;BME280;22233;42.708;23.360;2022-11-22T01:09:20;94884.13;;;5.84;73.25
36192;BME280;22233;42.708;23.360;2022-11-22T01:11:46;94891.38;;;5.83;73.17
36192;BME280;22233;42.708;23.360;2022-11-22T01:14:13;94882.94;;;5.90;72.41
36192;BME280;22233;42.708;23.360;2022-11-22T01:16:39;94878.88;;;5.73;72.66
36192;BME280;22233;42.708;23.360;2022-11-22T01:19:04;94894.75;;;5.75;73.11
36192;BME280;22233;42.708;23.360;2022-11-22T01:21:31;94886.56;;;5.66;73.70
36192;BME280;22233;42.708;23.360;2022-11-22T01:23:56;94888.13;;;5.53;74.38
36192;BME280;22233;42.708;23.360;2022-11-22T01:26:22;94886.94;;;5.59;74.40
36192;BME280;22233;42.708;23.360;2022-11-22T01:28:47;94878.50;;;5.28;75.29
36192;BME280;22233;42.708;23.360;2022-11-22T01:31:12;94886.00;;;5.50;74.68
36192;BME280;22233;42.708;23.360;2022-11-22T01:33:38;94883.38;;;5.45;74.85
36192;BME280;22233;42.708;23.360;2022-11-22T01:36:03;94856.25;;;5.42;74.25
36192;BME280;22233;42.708;23.360;2022-11-22T01:38:29;94875.00;;;5.47;74.09
36192;BME280;22233;42.708;23.360;2022-11-22T01:40:54;94859.00;;;5.69;73.41
36192;BME280;22233;42.708;23.360;2022-11-22T01:43:23;94854.59;;;5.92;72.47
36192;BME280;22233;42.708;23.360;2022-11-22T01:46:31;94871.28;;;5.75;72.76
36192;BME280;22233;42.708;23.360;2022-11-22T01:51:48;94873.41;;;5.78;73.07
36192;BME280;22233;42.708;23.360;2022-11-22T01:54:18;94878.50;;;5.80;73.28
36192;BME280;22233;42.708;23.360;2022-11-22T01:56:50;94879.19;;;5.72;72.71
36192;BME280;22233;42.708;23.360;2022-11-22T01:59:21;94862.84;;;5.82;72.55
36192;BME280;22233;42.708;23.360;2022-11-22T02:01:49;94852.53;;;5.70;72.83
36192;BME280;22233;42.708;23.360;2022-11-22T02:04:16;94866.91;;;5.98;71.62
36192;BME280;22233;42.708;23.360;2022-11-22T02:09:15;94847.56;;;5.91;71.52
36192;BME280;22233;42.708;23.360;2022-11-22T02:11:46;94855.50;;;5.69;72.48
36192;BME280;22233;42.708;23.360;2022-11-22T02:14:14;94876.41;;;6.10;71.24
36192;BME280;22233;42.708;23.360;2022-11-22T02:16:41;94875.72;;;5.85;71.88
36192;BME280;22233;42.708;23.360;2022-11-22T02:19:18;94864.41;;;6.02;71.06
36192;BME280;22233;42.708;23.360;2022-11-22T02:21:53;94851.66;;;6.08;70.58
36192;BME280;22233;42.708;23.360;2022-11-22T02:24:40;94885.81;;;6.26;70.21
36192;BME280;22233;42.708;23.360;2022-11-22T02:27:07;94877.63;;;6.31;69.74
36192;BME280;22233;42.708;23.360;2022-11-22T02:29:32;94875.53;;;6.28;69.60
36192;BME280;22233;42.708;23.360;2022-11-22T02:31:58;94868.03;;;6.53;69.62
36192;BME280;22233;42.708;23.360;2022-11-22T02:34:24;94882.63;;;6.66;69.58
36192;BME280;22233;42.708;23.360;2022-11-22T02:36:51;94876.22;;;6.75;68.93
36192;BME280;22233;42.708;23.360;2022-11-22T02:39:22;94879.59;;;6.95;68.39
36192;BME280;22233;42.708;23.360;2022-11-22T02:41:50;94878.59;;;7.05;68.36
36192;BME280;22233;42.708;23.360;2022-11-22T02:44:16;94870.88;;;6.98;67.78
36192;BME280;22233;42.708;23.360;2022-11-22T02:46:50;94884.16;;;7.08;67.55
36192;BME280;22233;42.708;23.360;2022-11-22T02:49:18;94868.59;;;7.05;67.67
36192;BME280;22233;42.708;23.360;2022-11-22T02:51:44;94863.88;;;7.11;67.14
36192;BME280;22233;42.708;23.360;2022-11-22T02:54:10;94856.09;;;6.95;67.42
36192;BME280;22233;42.708;23.360;2022-11-22T02:56:35;94862.94;;;7.15;66.95
36192;BME280;22233;42.708;23.360;2022-11-22T02:59:00;94871.50;;;6.95;67.26
36192;BME280;22233;42.708;23.360;2022-11-22T03:01:26;94868.66;;;7.14;66.77
36192;BME280;22233;42.708;23.360;2022-11-22T03:03:51;94863.97;;;7.06;66.68
36192;BME280;22233;42.708;23.360;2022-11-22T03:06:17;94866.38;;;7.07;67.08
36192;BME280;22233;42.708;23.360;2022-11-22T03:08:42;94861.63;;;6.90;67.24
36192;BME280;22233;42.708;23.360;2022-11-22T03:11:08;94851.72;;;6.86;67.09
36192;BME280;22233;42.708;23.360;2022-11-22T03:13:33;94861.63;;;6.90;67.56
36192;BME280;22233;42.708;23.360;2022-11-22T03:15:59;94849.94;;;6.53;67.54
36192;BME280;22233;42.708;23.360;2022-11-22T03:18:24;94859.44;;;6.37;69.07
36192;BME280;22233;42.708;23.360;2022-11-22T03:20:50;94859.84;;;6.30;69.00
36192;BME280;22233;42.708;23.360;2022-11-22T03:23:15;94846.25;;;6.49;68.45
36192;BME280;22233;42.708;23.360;2022-11-22T03:25:41;94858.75;;;6.45;68.38
36192;BME280;22233;42.708;23.360;2022-11-22T03:28:06;94841.25;;;6.15;68.83
36192;BME280;22233;42.708;23.360;2022-11-22T03:30:32;94865.22;;;6.03;69.98
36192;BME280;22233;42.708;23.360;2022-11-22T03:32:57;94856.69;;;5.95;70.33
36192;BME280;22233;42.708;23.360;2022-11-22T03:35:23;94846.16;;;6.13;69.42
36192;BME280;22233;42.708;23.360;2022-11-22T03:37:48;94861.94;;;6.33;69.40
36192;BME280;22233;42.708;23.360;2022-11-22T03:40:13;94859.44;;;6.51;68.81
36192;BME280;22233;42.708;23.360;2022-11-22T03:42:39;94863.56;;;6.62;68.44
36192;BME280;22233;42.708;23.360;2022-11-22T03:45:05;94852.25;;;6.60;68.53
36192;BME280;22233;42.708;23.360;2022-11-22T03:47:30;94866.56;;;6.60;68.77
36192;BME280;22233;42.708;23.360;2022-11-22T03:49:56;94867.84;;;6.63;68.26
36192;BME280;22233;42.708;23.360;2022-11-22T03:52:21;94868.84;;;6.67;68.24
36192;BME280;22233;42.708;23.360;2022-11-22T03:54:47;94869.84;;;6.71;68.56
36192;BME280;22233;42.708;23.360;2022-11-22T03:57:12;94873.03;;;6.73;68.57
36192;BME280;22233;42.708;23.360;2022-11-22T03:59:37;94882.53;;;6.71;68.53
36192;BME280;22233;42.708;23.360;2022-11-22T04:02:03;94882.41;;;6.76;68.35
36192;BME280;22233;42.708;23.360;2022-11-22T04:04:28;94874.44;;;6.85;67.93
36192;BME280;22233;42.708;23.360;2022-11-22T04:06:53;94869.94;;;6.66;68.08
36192;BME280;22233;42.708;23.360;2022-11-22T04:09:19;94881.81;;;6.79;68.24
36192;BME280;22233;42.708;23.360;2022-11-22T04:11:44;94848.84;;;6.68;67.92
36192;BME280;22233;42.708;23.360;2022-11-22T04:14:10;94885.94;;;6.90;67.64
36192;BME280;22233;42.708;23.360;2022-11-22T04:16:55;94889.00;;;6.84;68.04
36192;BME280;22233;42.708;23.360;2022-11-22T04:19:21;94889.84;;;6.84;67.76
36192;BME280;22233;42.708;23.360;2022-11-22T04:21:46;94889.50;;;6.86;67.58
36192;BME280;22233;42.708;23.360;2022-11-22T04:24:11;94901.13;;;6.86;67.77
36192;BME280;22233;42.708;23.360;2022-11-22T04:26:56;94901.00;;;6.91;67.09
36192;BME280;22233;42.708;23.360;2022-11-22T04:29:22;94893.03;;;6.86;67.43
36192;BME280;22233;42.708;23.360;2022-11-22T04:31:49;94903.63;;;6.83;67.67
36192;BME280;22233;42.708;23.360;2022-11-22T04:34:34;94910.53;;;6.75;67.68
36192;BME280;22233;42.708;23.360;2022-11-22T04:37:00;94896.31;;;6.69;67.32
36192;BME280;22233;42.708;23.360;2022-11-22T04:39:26;94905.63;;;6.63;67.98
36192;BME280;22233;42.708;23.360;2022-11-22T04:41:52;94900.84;;;6.60;67.53
36192;BME280;22233;42.708;23.360;2022-11-22T04:44:36;94899.50;;;6.44;68.02
36192;BME280;22233;42.708;23.360;2022-11-22T04:47:05;94919.31;;;6.39;68.21
36192;BME280;22233;42.708;23.360;2022-11-22T04:49:31;94923.41;;;6.36;68.22
36192;BME280;22233;42.708;23.360;2022-11-22T04:51:56;94902.81;;;6.27;67.73
36192;BME280;22233;42.708;23.360;2022-11-22T04:54:40;94926.31;;;6.40;67.91
36192;BME280;22233;42.708;23.360;2022-11-22T04:57:05;94937.28;;;6.44;67.42
36192;BME280;22233;42.708;23.360;2022-11-22T04:59:31;94947.56;;;6.42;67.21
36192;BME280;22233;42.708;23.360;2022-11-22T05:01:56;94943.00;;;6.42;67.80
36192;BME280;22233;42.708;23.360;2022-11-22T05:04:21;94925.59;;;6.34;67.46
36192;BME280;22233;42.708;23.360;2022-11-22T05:06:47;94944.97;;;6.36;68.19
36192;BME280;22233;42.708;23.360;2022-11-22T05:09:12;94942.19;;;6.42;68.33
36192;BME280;22233;42.708;23.360;2022-11-22T05:11:37;94952.28;;;6.50;67.98
36192;BME280;22233;42.708;23.360;2022-11-22T05:14:03;94934.69;;;6.38;67.79
36192;BME280;22233;42.708;23.360;2022-11-22T05:16:28;94923.97;;;6.33;68.19
36192;BME280;22233;42.708;23.360;2022-11-22T05:18:54;94933.38;;;6.22;68.26
36192;BME280;22233;42.708;23.360;2022-11-22T05:21:26;94939.34;;;6.19;68.45
36192;BME280;22233;42.708;23.360;2022-11-22T05:23:52;94934.16;;;6.23;68.06
36192;BME280;22233;42.708;23.360;2022-11-22T05:26:28;94925.03;;;6.05;68.61
36192;BME280;22233;42.708;23.360;2022-11-22T05:28:54;94935.06;;;6.18;68.75
36192;BME280;22233;42.708;23.360;2022-11-22T05:31:22;94937.75;;;6.18;69.31
36192;BME280;22233;42.708;23.360;2022-11-22T05:33:50;94947.09;;;6.07;68.76
36192;BME280;22233;42.708;23.360;2022-11-22T05:36:16;94945.25;;;6.21;68.75
36192;BME280;22233;42.708;23.360;2022-11-22T05:38:42;94928.44;;;5.91;69.07
36192;BME280;22233;42.708;23.360;2022-11-22T05:41:10;94943.34;;;6.08;69.19
36192;BME280;22233;42.708;23.360;2022-11-22T05:43:37;94933.56;;;6.12;69.31
36192;BME280;22233;42.708;23.360;2022-11-22T05:46:07;94924.81;;;6.01;69.46
36192;BME280;22233;42.708;23.360;2022-11-22T05:48:34;94924.25;;;5.85;69.66
36192;BME280;22233;42.708;23.360;2022-11-22T05:51:07;94939.34;;;5.86;69.68
36192;BME280;22233;42.708;23.360;2022-11-22T05:53:33;94942.09;;;5.81;70.49
36192;BME280;22233;42.708;23.360;2022-11-22T05:56:07;94934.16;;;5.90;70.77
36192;BME280;22233;42.708;23.360;2022-11-22T05:58:33;94936.25;;;5.93;70.38
36192;BME280;22233;42.708;23.360;2022-11-22T06:01:06;94939.09;;;6.02;70.16
36192;BME280;22233;42.708;23.360;2022-11-22T06:03:33;94949.63;;;6.17;70.03
36192;BME280;22233;42.708;23.360;2022-11-22T06:05:58;94947.19;;;6.02;69.83
36192;BME280;22233;42.708;23.360;2022-11-22T06:08:23;94948.16;;;6.25;69.95
36192;BME280;22233;42.708;23.360;2022-11-22T06:10:49;94947.69;;;6.36;69.79
36192;BME280;22233;42.708;23.360;2022-11-22T06:13:14;94947.56;;;6.42;69.99
36192;BME280;22233;42.708;23.360;2022-11-22T06:15:40;94940.69;;;6.49;69.95
36192;BME280;22233;42.708;23.360;2022-11-22T06:18:05;94960.72;;;6.62;69.21
36192;BME280;22233;42.708;23.360;2022-11-22T06:20:30;94950.09;;;6.52;69.80
36192;BME280;22233;42.708;23.360;2022-11-22T06:22:59;94948.19;;;6.38;68.94
36192;BME280;22233;42.708;23.360;2022-11-22T06:25:24;94952.13;;;5.94;70.25
36192;BME280;22233;42.708;23.360;2022-11-22T06:27:50;94948.28;;;6.00;70.54
36192;BME280;22233;42.708;23.360;2022-11-22T06:30:15;94963.25;;;5.74;71.23
36192;BME280;22233;42.708;23.360;2022-11-22T06:32:41;94941.81;;;5.83;71.09
36192;BME280;22233;42.708;23.360;2022-11-22T06:35:06;94956.19;;;5.78;72.02
36192;BME280;22233;42.708;23.360;2022-11-22T06:37:32;94946.63;;;5.67;71.60
36192;BME280;22233;42.708;23.360;2022-11-22T06:39:57;94948.91;;;5.59;72.51
36192;BME280;22233;42.708;23.360;2022-11-22T06:42:23;94959.22;;;5.71;72.06
36192;BME280;22233;42.708;23.360;2022-11-22T06:44:48;94966.97;;;5.40;73.11
36192;BME280;22233;42.708;23.360;2022-11-22T06:47:14;94951.09;;;5.19;73.67
36192;BME280;22233;42.708;23.360;2022-11-22T06:49:39;94966.72;;;5.36;73.21
36192;BME280;22233;42.708;23.360;2022-11-22T06:52:04;94967.53;;;5.37;73.48
36192;BME280;22233;42.708;23.360;2022-11-22T06:54:30;94985.72;;;5.45;73.50
36192;BME280;22233;42.708;23.360;2022-11-22T06:56:55;94964.13;;;5.31;73.88
36192;BME280;22233;42.708;23.360;2022-11-22T06:59:20;94980.75;;;5.57;73.17
36192;BME280;22233;42.708;23.360;2022-11-22T07:01:46;94974.38;;;5.48;73.85
36192;BME280;22233;42.708;23.360;2022-11-22T07:04:11;94967.19;;;5.63;73.34
36192;BME280;22233;42.708;23.360;2022-11-22T07:06:37;94963.91;;;5.66;73.28
36192;BME280;22233;42.708;23.360;2022-11-22T07:09:05;94957.63;;;5.32;73.84
36192;BME280;22233;42.708;23.360;2022-11-22T07:11:31;94966.28;;;5.67;73.63
36192;BME280;22233;42.708;23.360;2022-11-22T07:13:58;94985.03;;;5.96;73.02
36192;BME280;22233;42.708;23.360;2022-11-22T07:16:24;94959.91;;;6.15;72.61
36192;BME280;22233;42.708;23.360;2022-11-22T07:18:49;94951.69;;;5.87;72.39
36192;BME280;22233;42.708;23.360;2022-11-22T07:21:17;94965.53;;;6.18;71.41
36192;BME280;22233;42.708;23.360;2022-11-22T07:23:44;94958.56;;;6.31;70.77
36192;BME280;22233;42.708;23.360;2022-11-22T07:26:11;94965.88;;;6.45;70.48
36192;BME280;22233;42.708;23.360;2022-11-22T07:28:37;94959.94;;;6.29;71.22
36192;BME280;22233;42.708;23.360;2022-11-22T07:31:05;94967.88;;;6.06;72.20
36192;BME280;22233;42.708;23.360;2022-11-22T07:33:31;94957.97;;;6.34;70.85
36192;BME280;22233;42.708;23.360;2022-11-22T07:36:08;94949.50;;;6.55;71.03
36192;BME280;22233;42.708;23.360;2022-11-22T07:38:34;94954.91;;;6.55;71.05
36192;BME280;22233;42.708;23.360;2022-11-22T07:41:00;94948.31;;;6.75;70.58
36192;BME280;22233;42.708;23.360;2022-11-22T07:43:26;94931.38;;;6.42;72.04
36192;BME280;22233;42.708;23.360;2022-11-22T07:45:52;94944.31;;;6.72;71.22
36192;BME280;22233;42.708;23.360;2022-11-22T07:48:17;94919.91;;;6.50;71.00
36192;BME280;22233;42.708;23.360;2022-11-22T07:50:42;94922.59;;;6.64;71.37
36192;BME280;22233;42.708;23.360;2022-11-22T07:53:08;94931.31;;;6.74;70.28
36192;BME280;22233;42.708;23.360;2022-11-22T07:55:35;94909.91;;;6.78;70.01
36192;BME280;22233;42.708;23.360;2022-11-22T07:58:00;94944.00;;;6.74;70.32
36192;BME280;22233;42.708;23.360;2022-11-22T08:00:26;94943.13;;;6.78;70.50
36192;BME280;22233;42.708;23.360;2022-11-22T08:02:52;94952.88;;;6.47;71.32
36192;BME280;22233;42.708;23.360;2022-11-22T08:05:18;94951.59;;;6.86;71.00
36192;BME280;22233;42.708;23.360;2022-11-22T08:07:47;94949.81;;;6.81;70.90
36192;BME280;22233;42.708;23.360;2022-11-22T08:10:14;94925.22;;;6.83;69.88
36192;BME280;22233;42.708;23.360;2022-11-22T08:12:39;94956.00;;;7.09;70.44
36192;BME280;22233;42.708;23.360;2022-11-22T08:15:06;94950.19;;;7.02;70.18
36192;BME280;22233;42.708;23.360;2022-11-22T08:17:31;94938.09;;;6.99;70.57
36192;BME280;22233;42.708;23.360;2022-11-22T08:19:57;94935.59;;;6.75;71.68
36192;BME280;22233;42.708;23.360;2022-11-22T08:22:22;94940.94;;;6.94;71.02
36192;BME280;22233;42.708;23.360;2022-11-22T08:24:48;94934.59;;;6.99;70.74
36192;BME280;22233;42.708;23.360;2022-11-22T08:27:13;94945.28;;;7.18;70.24
36192;BME280;22233;42.708;23.360;2022-11-22T08:29:39;94943.78;;;7.26;69.68
36192;BME280;22233;42.708;23.360;2022-11-22T08:32:04;94946.09;;;7.18;69.77
36192;BME280;22233;42.708;23.360;2022-11-22T08:34:30;94932.88;;;7.31;69.68
36192;BME280;22233;42.708;23.360;2022-11-22T08:36:55;94910.50;;;7.16;69.18
36192;BME280;22233;42.708;23.360;2022-11-22T08:39:20;94917.34;;;7.36;69.69
36192;BME280;22233;42.708;23.360;2022-11-22T08:41:48;94900.31;;;6.72;70.42
36192;BME280;22233;42.708;23.360;2022-11-22T08:44:14;94909.16;;;7.14;70.59
36192;BME280;22233;42.708;23.360;2022-11-22T08:46:39;94908.66;;;7.26;69.78
36192;BME280;22233;42.708;23.360;2022-11-22T08:49:04;94896.56;;;7.23;69.93
36192;BME280;22233;42.708;23.360;2022-11-22T08:51:31;94887.56;;;7.50;68.91
36192;BME280;22233;42.708;23.360;2022-11-22T08:53:57;94891.91;;;7.37;70.43
36192;BME280;22233;42.708;23.360;2022-11-22T08:56:23;94881.59;;;7.62;69.53
36192;BME280;22233;42.708;23.360;2022-11-22T08:58:48;94880.22;;;7.65;68.28
36192;BME280;22233;42.708;23.360;2022-11-22T09:01:16;94884.94;;;7.59;69.25
36192;BME280;22233;42.708;23.360;2022-11-22T09:03:42;94890.38;;;7.45;70.03
36192;BME280;22233;42.708;23.360;2022-11-22T09:06:10;94879.16;;;7.52;69.76
36192;BME280;22233;42.708;23.360;2022-11-22T09:08:36;94869.22;;;7.61;69.23
36192;BME280;22233;42.708;23.360;2022-11-22T09:11:04;94877.25;;;7.75;68.83
36192;BME280;22233;42.708;23.360;2022-11-22T09:13:30;94880.13;;;7.78;68.37
36192;BME280;22233;42.708;23.360;2022-11-22T09:16:07;94863.03;;;7.92;68.03
36192;BME280;22233;42.708;23.360;2022-11-22T09:18:33;94861.19;;;8.01;67.97
36192;BME280;22233;42.708;23.360;2022-11-22T09:21:02;94856.06;;;7.91;68.32
36192;BME280;22233;42.708;23.360;2022-11-22T09:23:28;94872.66;;;8.07;67.82
36192;BME280;22233;42.708;23.360;2022-11-22T09:26:11;94874.38;;;8.03;67.60
36192;BME280;22233;42.708;23.360;2022-11-22T09:28:37;94870.16;;;8.10;66.38
36192;BME280;22233;42.708;23.360;2022-11-22T09:31:08;94866.34;;;8.11;66.57
36192;BME280;22233;42.708;23.360;2022-11-22T09:33:36;94855.13;;;7.95;67.66
36192;BME280;22233;42.708;23.360;2022-11-22T09:36:21;94861.84;;;8.07;67.24
36192;BME280;22233;42.708;23.360;2022-11-22T09:38:47;94868.00;;;8.21;66.93
36192;BME280;22233;42.708;23.360;2022-11-22T09:53:03;94838.56;;;8.68;66.62
36192;BME280;22233;42.708;23.360;2022-11-22T09:55:39;94826.28;;;8.62;67.12
36192;BME280;22233;42.708;23.360;2022-11-22T10:01:14;94843.38;;;8.71;65.87
36192;BME280;22233;42.708;23.360;2022-11-22T10:06:20;94839.72;;;8.85;66.07
36192;BME280;22233;42.708;23.360;2022-11-22T10:12:02;94824.13;;;8.82;65.91
36192;BME280;22233;42.708;23.360;2022-11-22T10:17:55;94814.25;;;8.94;66.35
36192;BME280;22233;42.708;23.360;2022-11-22T10:20:18;94803.91;;;9.23;64.52
36192;BME280;22233;42.708;23.360;2022-11-22T10:22:44;94794.03;;;9.18;64.18
36192;BME280;22233;42.708;23.360;2022-11-22T10:27:47;94793.88;;;9.14;nan
36192;BME280;22233;42.708;23.360;2022-11-22T10:30:18;94774.75;;;9.28;65.35
36192;BME280;22233;42.708;23.360;2022-11-22T10:32:55;94778.06;;;9.43;65.15
36192;BME280;22233;42.708;23.360;2022-11-22T10:38:39;94757.81;;;9.49;63.97
36192;BME280;22233;42.708;23.360;2022-11-22T10:49:44;94755.38;;;9.65;63.14
36192;BME280;22233;42.708;23.360;2022-11-22T11:08:13;94737.59;;;9.11;64.15
36192;BME280;22233;42.708;23.360;2022-11-22T11:10:39;94736.28;;;9.44;63.74
36192;BME280;22233;42.708;23.360;2022-11-22T11:13:20;94742.88;;;9.08;64.80
36192;BME280;22233;42.708;23.360;2022-11-22T11:15:50;94739.47;;;9.54;63.65
36192;BME280;22233;42.708;23.360;2022-11-22T11:21:12;94742.41;;;9.79;62.73
36192;BME280;22233;42.708;23.360;2022-11-22T11:23:38;94748.53;;;10.06;63.06
36192;BME280;22233;42.708;23.360;2022-11-22T11:26:26;94746.69;;;9.89;63.22
36192;BME280;22233;42.708;23.360;2022-11-22T11:32:12;94739.66;;;9.88;63.40
36192;BME280;22233;42.708;23.360;2022-11-22T11:34:41;94735.31;;;9.57;63.22
36192;BME280;22233;42.708;23.360;2022-11-22T11:37:48;94717.44;;;9.56;62.68
36192;BME280;22233;42.708;23.360;2022-11-22T11:40:27;94711.31;;;9.76;62.11
36192;BME280;22233;42.708;23.360;2022-11-22T11:43:18;94724.84;;;9.85;62.20
36192;BME280;22233;42.708;23.360;2022-11-22T11:45:43;94710.78;;;9.45;63.85
36192;BME280;22233;42.708;23.360;2022-11-22T11:48:35;94697.81;;;9.59;63.43
36192;BME280;22233;42.708;23.360;2022-11-22T11:54:03;94696.88;;;9.55;62.86
36192;BME280;22233;42.708;23.360;2022-11-22T11:56:50;94696.47;;;9.83;62.33
36192;BME280;22233;42.708;23.360;2022-11-22T11:59:18;94693.41;;;10.23;62.17
36192;BME280;22233;42.708;23.360;2022-11-22T12:01:54;94691.09;;;10.04;61.94
36192;BME280;22233;42.708;23.360;2022-11-22T12:04:24;94698.59;;;10.07;61.37
36192;BME280;22233;42.708;23.360;2022-11-22T12:07:02;94694.31;;;9.97;61.97
36192;BME280;22233;42.708;23.360;2022-11-22T12:09:34;94691.91;;;10.04;60.96
36192;BME280;22233;42.708;23.360;2022-11-22T12:12:08;94680.97;;;9.83;62.91
36192;BME280;22233;42.708;23.360;2022-11-22T12:14:38;94684.66;;;9.78;63.33
36192;BME280;22233;42.708;23.360;2022-11-22T12:17:11;94682.56;;;10.14;62.19
36192;BME280;22233;42.708;23.360;2022-11-22T12:20:01;94685.75;;;10.16;62.57
36192;BME280;22233;42.708;23.360;2022-11-22T12:22:56;94679.06;;;10.13;61.68
36192;BME280;22233;42.708;23.360;2022-11-22T12:25:34;94664.44;;;10.35;62.33
36192;BME280;22233;42.708;23.360;2022-11-22T12:28:16;94653.59;;;10.35;62.36
36192;BME280;22233;42.708;23.360;2022-11-22T12:30:45;94648.44;;;10.43;63.76
36192;BME280;22233;42.708;23.360;2022-11-22T12:33:22;94649.16;;;10.31;63.21
36192;BME280;22233;42.708;23.360;2022-11-22T12:35:52;94660.88;;;10.14;63.87
36192;BME280;22233;42.708;23.360;2022-11-22T12:38:40;94626.72;;;9.83;65.15
36192;BME280;22233;42.708;23.360;2022-11-22T12:41:11;94647.88;;;9.98;64.85
36192;BME280;22233;42.708;23.360;2022-11-22T12:43:40;94661.06;;;10.09;65.18
36192;BME280;22233;42.708;23.360;2022-11-22T12:46:20;94646.28;;;9.97;65.56
36192;BME280;22233;42.708;23.360;2022-11-22T12:51:29;94647.50;;;10.09;66.02
36192;BME280;22233;42.708;23.360;2022-11-22T12:54:01;94642.53;;;10.11;67.25
36192;BME280;22233;42.708;23.360;2022-11-22T12:56:28;94639.34;;;10.09;67.58
36192;BME280;22233;42.708;23.360;2022-11-22T13:01:31;94637.41;;;9.88;67.17
36192;BME280;22233;42.708;23.360;2022-11-22T13:04:10;94631.22;;;10.09;66.70
36192;BME280;22233;42.708;23.360;2022-11-22T13:07:20;94625.25;;;9.94;68.42
36192;BME280;22233;42.708;23.360;2022-11-22T13:09:57;94628.28;;;10.14;67.43
36192;BME280;22233;42.708;23.360;2022-11-22T13:12:30;94614.38;;;9.94;67.50
36192;BME280;22233;42.708;23.360;2022-11-22T13:14:58;94622.47;;;10.03;67.28
36192;BME280;22233;42.708;23.360;2022-11-22T13:17:26;94626.03;;;9.95;67.51
36192;BME280;22233;42.708;23.360;2022-11-22T13:19:59;94630.00;;;9.97;68.11
36192;BME280;22233;42.708;23.360;2022-11-22T13:28:37;94627.81;;;9.91;68.93
36192;BME280;22233;42.708;23.360;2022-11-22T13:33:36;94604.03;;;9.88;69.09
36192;BME280;22233;42.708;23.360;2022-11-22T13:38:46;94595.56;;;9.59;69.22
36192;BME280;22233;42.708;23.360;2022-11-22T13:41:23;94609.13;;;9.89;68.87
36192;BME280;22233;42.708;23.360;2022-11-22T13:43:54;94596.50;;;9.93;68.58
36192;BME280;22233;42.708;23.360;2022-11-22T13:46:49;94592.00;;;9.97;68.58
36192;BME280;22233;42.708;23.360;2022-11-22T13:49:38;94589.09;;;9.43;70.12
36192;BME280;22233;42.708;23.360;2022-11-22T13:52:27;94579.50;;;9.54;69.60
36192;BME280;22233;42.708;23.360;2022-11-22T13:57:37;94576.00;;;9.45;71.29
36192;BME280;22233;42.708;23.360;2022-11-22T14:02:40;94596.09;;;9.83;70.14
36192;BME280;22233;42.708;23.360;2022-11-22T14:05:32;94580.66;;;9.74;69.65
36192;BME280;22233;42.708;23.360;2022-11-22T14:07:59;94576.31;;;9.52;70.03
36192;BME280;22233;42.708;23.360;2022-11-22T14:18:56;94584.22;;;9.66;71.34
36192;BME280;22233;42.708;23.360;2022-11-22T14:21:45;94577.53;;;9.25;71.41
36192;BME280;22233;42.708;23.360;2022-11-22T14:27:18;94553.22;;;9.76;70.74
36192;BME280;22233;42.708;23.360;2022-11-22T14:29:51;94571.59;;;9.70;70.53
36192;BME280;22233;42.708;23.360;2022-11-22T14:32:24;94547.41;;;8.79;72.43
36192;BME280;22233;42.708;23.360;2022-11-22T14:47:43;94539.53;;;9.43;71.67
36192;BME280;22233;42.708;23.360;2022-11-22T14:50:33;94522.78;;;9.40;72.57
36192;BME280;22233;42.708;23.360;2022-11-22T14:53:14;94537.91;;;9.50;72.69
36192;BME280;22233;42.708;23.360;2022-11-22T14:55:43;94530.00;;;9.36;72.32
36192;BME280;22233;42.708;23.360;2022-11-22T14:58:12;94530.69;;;9.54;71.76
36192;BME280;22233;42.708;23.360;2022-11-22T15:09:18;94525.81;;;9.39;69.39
36192;BME280;22233;42.708;23.360;2022-11-22T15:12:31;94536.66;;;9.69;68.76
36192;BME280;22233;42.708;23.360;2022-11-22T15:17:37;94552.47;;;9.96;67.56